Wharton, Ohio
Current Conditions -  °F | °C
As of 12:53 PM on Saturday 25 Oct 2014 (Local Time) from KFDY Reporting Station
Haze Haze  
Wind Chill: 69°   Ceiling: Unl
Heat Index: 69°   Visibility: 4mi
Dew Point: 54°   Wind: 15mph
Humidity: 58%   Direction: 250°WSW
Pressure: 29.85"   Gusts: 25mph
Location:  40.86°N, 83.46°W
Report Text: KFDY 251653Z AUTO 25013G22KT 4SM HZ CLR 21/12 A2985 RMK AO2 SLP102 T02060122
Loading
Personal Weather Stations






























Interactive Weather Map
Tropical Storm Tracking
New forecast layout! Learn more

10-Day Weather Forecast

Advertisements
Track Severe Weather on mobile